Rain From: 21-07-2018 02:00 Until: 16:00 warning for: Rain Level: Yellow info button
suomi:
Sadevaroitus: Aamuyöstä alkaen voi sataa rankasti, yli 20 mm tunnissa.

svenska:
Nederbördsvarning: Från och med efternatten kan det förekomma synnerligen riklig nederbörd, mer än 20 mm i timmen.

english:
Heavy rain warning: From the early morning on heavy rain of more than 20 mm per hour can be expected. 

Forest fire From: 20-07-2018 23:00 Until: 21-07-2018 11:00 warning for: Forest fire Level: Yellow info button
suomi:
Metsäpalovaroitus on voimassa.

svenska:
Varning för skogsbrand gäller.

english:
A forest fire warning is in force. 


Thunder radar more information blitzortung!


Löydät sääaseman tiedot myös:

European Weather Network

Finland Weather Exchange

Weather Underground

AWEKAS



Weather Underground säähistoriasivu

Päivittäin yhteenveto Tou 17, 2017 Yksiköt:  Metriset    Englantilaiset   Molemmat
« Edellinen Päivä
Seuraava Päivä »
Päivittäin Viikoittain Kuukausittain Vuosittain Mukautettu
  Korkea: Matala: Keskiarvo:
Lämpötila: -17.8 °C -15.3 °C -13.8 °C
Kastepiste: -17.8 °C -18.6 °C -15.9 °C
Kosteus: Humidity % 59 % 77 %
Tuulen nopeus: 0 km/h 0 km/h 6 km/h
Tuulenpuuska: 0 km/h - -
Tuuli:- - SSW
Ilmanpaine: 0 hPa 34462.7 hPa -
Sade: 71.12 mm    
Historical Graphs
 
 
Taulukkotiedot Tou 17, 2017
Aika Lämpötila Kastepiste Ilmanpaine Tuuli Tuulen nopeus Tuulenpuuska Kosteus Sademäärä (tunneittain)
-17.8 °C -17.8 °C 0 hPa Calm     Humidity % 0 mm
00:00 -14.3 °C -18.4 °C 34760.7 hPa SSW 7.7 km/h 15.6 km/h 59 % 0 mm
00:15 -14.6 °C -18.6 °C 34760.7 hPa SSW 5.1 km/h 15.6 km/h 60 % 0 mm
00:30 -14.8 °C -18.5 °C 34760.7 hPa SSW 5.1 km/h 18.2 km/h 62 % 0 mm
00:45 -14.8 °C -18.4 °C 34750.5 hPa South 5.1 km/h 10.3 km/h 63 % 0 mm
01:00 -14.9 °C -18.3 °C 34740.4 hPa SSW 5.1 km/h 18.2 km/h 64 % 0 mm
01:15 -14.9 °C -18.2 °C 34740.4 hPa SSW 5.1 km/h 12.9 km/h 65 % 0 mm
01:30 -14.9 °C -18.2 °C 34740.4 hPa SSW 7.7 km/h 18.2 km/h 66 % 0 mm
01:45 -14.9 °C -18 °C 34726.8 hPa SSW 7.7 km/h 20.8 km/h 67 % 0 mm
02:00 -14.8 °C -17.9 °C 34726.8 hPa SSW 7.7 km/h 18.2 km/h 68 % 0 mm
02:15 -14.8 °C -17.7 °C 34716.7 hPa SSW 5.1 km/h 20.8 km/h 69 % 0 mm
02:30 -14.8 °C -17.6 °C 34703.1 hPa SSW 5.1 km/h 15.6 km/h 70 % 0 mm
02:45 -14.7 °C -17.4 °C 34693 hPa SSW 7.7 km/h 23.3 km/h 71 % 0 mm
03:00 -14.6 °C -17.3 °C 34693 hPa SSW 10.3 km/h 25.9 km/h 71 % 0 mm
03:15 -14.5 °C -17.2 °C 34682.8 hPa SSW 12.9 km/h 25.9 km/h 71 % 0 mm
03:30 -14.4 °C -17.2 °C 34682.8 hPa SSW 10.3 km/h 25.9 km/h 71 % 0 mm
03:45 -14.4 °C -17.1 °C 34669.3 hPa SSW 7.7 km/h 20.8 km/h 71 % 0 mm
04:00 -14.3 °C -17.2 °C 34669.3 hPa SSW 10.3 km/h 20.8 km/h 70 % 0 mm
04:15 -14.3 °C -17.1 °C 34659.1 hPa SSW 10.3 km/h 25.9 km/h 70 % 0 mm
04:45 -14.3 °C -17.4 °C 34645.6 hPa SSW 12.9 km/h 38.8 km/h 67 % 0 mm
05:00 -14.3 °C -17.4 °C 34645.6 hPa SSW 10.3 km/h 23.3 km/h 67 % 0 mm
05:15 -14.3 °C -17.4 °C 34645.6 hPa SSW 12.9 km/h 33.6 km/h 67 % 0 mm
05:30 -14.3 °C -17.4 °C 34635.4 hPa SSW 12.9 km/h 31.1 km/h 67 % 0 mm
05:45 -14.3 °C -17.5 °C 34625.2 hPa SSW 10.3 km/h 25.9 km/h 67 % 0 mm
06:00 -14.3 °C -17.5 °C 34611.7 hPa SSW 10.3 km/h 25.9 km/h 67 % 0 mm
06:15 -14.3 °C -17.6 °C 34611.7 hPa SSW 15.6 km/h 28.5 km/h 66 % 0 mm
06:30 -14.2 °C -17.5 °C 34611.7 hPa SSW 12.9 km/h 25.9 km/h 66 % 0 mm
06:45 -14.2 °C -17.4 °C 34601.5 hPa SSW 15.6 km/h 33.6 km/h 67 % 0 mm
07:00 -14.3 °C -17.3 °C 34601.5 hPa SSW 12.9 km/h 33.6 km/h 68 % 0 mm
07:15 -14.4 °C -16.9 °C 34601.5 hPa SSW 15.6 km/h 44.1 km/h 73 % 0 mm
07:30 -14.7 °C -16.6 °C 34601.5 hPa SSW 10.3 km/h 25.9 km/h 78 % 7.62 mm
07:45 -14.9 °C -16.3 °C 34591.4 hPa SSW 7.7 km/h 20.8 km/h 84 % 12.7 mm
08:00 -15.1 °C -16.2 °C 34591.4 hPa SSW 7.7 km/h 28.5 km/h 87 % 25.4 mm
08:15 -15.2 °C -16.1 °C 34591.4 hPa SSW 10.3 km/h 20.8 km/h 89 % 38.1 mm
08:30 -15.3 °C -16.1 °C 34591.4 hPa SSW 7.7 km/h 18.2 km/h 90 % 38.1 mm
08:45 -15.2 °C -16 °C 34577.8 hPa SSW 10.3 km/h 28.5 km/h 91 % 38.1 mm
09:00 -15.2 °C -15.9 °C 34577.8 hPa South 7.7 km/h 20.8 km/h 91 % 25.4 mm
09:15 -15.1 °C -15.8 °C 34577.8 hPa SSW 7.7 km/h 23.3 km/h 92 % 25.4 mm
09:30 -15.1 °C -15.7 °C 34567.7 hPa SSW 7.7 km/h 20.8 km/h 92 % 20.32 mm
09:45 -14.9 °C -15.6 °C 34567.7 hPa SSW 7.7 km/h 23.3 km/h 92 % 20.32 mm
10:00 -14.9 °C -15.6 °C 34567.7 hPa SSW 10.3 km/h 18.2 km/h 92 % 12.7 mm
10:15 -14.9 °C -15.6 °C 34554.1 hPa South 7.7 km/h 23.3 km/h 92 % 7.62 mm
10:30 -14.8 °C -15.6 °C 34554.1 hPa South 7.7 km/h 18.2 km/h 91 % 7.62 mm
10:45 -14.7 °C -15.5 °C 34544 hPa South 5.1 km/h 18.2 km/h 91 % 7.62 mm
11:00 -14.6 °C -15.4 °C 34544 hPa South 7.7 km/h 33.6 km/h 90 % 7.62 mm
11:15 -14.5 °C -15.5 °C 34533.8 hPa SSW 7.7 km/h 18.2 km/h 88 % 7.62 mm
11:30 -14.3 °C -15.4 °C 34533.8 hPa South 7.7 km/h 20.8 km/h 87 % 7.62 mm
11:45 -14.3 °C -15.3 °C 34520.3 hPa South 5.1 km/h 15.6 km/h 88 % 0 mm
12:00 -14.1 °C -15.3 °C 34520.3 hPa South 7.7 km/h 28.5 km/h 85 % 0 mm
12:15 -13.9 °C -15.2 °C 34520.3 hPa South 5.1 km/h 15.6 km/h 85 % 0 mm
12:30 -13.7 °C -15.2 °C 34510.1 hPa South 7.7 km/h 15.6 km/h 83 % 0 mm
12:45 -13.4 °C -15.1 °C 34510.1 hPa South 7.7 km/h 18.2 km/h 81 % 0 mm
13:00 -13.1 °C -15.2 °C 34510.1 hPa SSW 5.1 km/h 23.3 km/h 77 % 0 mm
13:15 -12.8 °C -15.6 °C 34496.6 hPa South 15.6 km/h 33.6 km/h 71 % 0 mm
13:30 -12.6 °C -15.5 °C 34496.6 hPa SSW 18.2 km/h 33.6 km/h 70 % 0 mm
13:45 -12.4 °C -15.5 °C 34486.4 hPa SSW 15.6 km/h 41.4 km/h 69 % 0 mm
14:00 -12.3 °C -15.4 °C 34486.4 hPa SSW 18.2 km/h 36.2 km/h 68 % 0 mm
14:15 -12 °C -15.4 °C 34476.3 hPa South 12.9 km/h 36.2 km/h 66 % 0 mm
14:30 -11.8 °C -15.4 °C 34476.3 hPa SSW 18.2 km/h 38.8 km/h 64 % 0 mm
14:45 -11.6 °C -15.2 °C 34476.3 hPa SSW 15.6 km/h 46.7 km/h 64 % 0 mm
15:00 -11.5 °C -15.3 °C 34476.3 hPa Calm     63 % 0 mm
15:15 -11.5 °C -15.3 °C 34476.3 hPa Calm     63 % 0 mm
15:30 -11.6 °C -15.4 °C 34476.3 hPa Calm     63 % 0 mm
15:45 -11.7 °C -15.3 °C 34486.4 hPa Calm     64 % 0 mm
16:00 -11.8 °C -15.1 °C 34486.4 hPa Calm     67 % 0 mm
16:15 -11.9 °C -15.1 °C 34486.4 hPa Calm     68 % 0 mm
16:30 -12.1 °C -14.9 °C 34486.4 hPa Calm     71 % 0 mm
17:00 -12.4 °C -14.9 °C 34476.3 hPa Calm     73 % 0 mm
17:15 -12.5 °C -14.9 °C 34476.3 hPa Calm     74 % 0 mm
17:30 -12.6 °C -14.9 °C 34486.4 hPa Calm     75 % 0 mm
17:45 -12.6 °C -14.9 °C 34476.3 hPa Calm     75 % 0 mm
18:00 -12.6 °C -14.7 °C 34476.3 hPa Calm     77 % 0 mm
18:15 -12.7 °C -14.5 °C 34476.3 hPa Calm     80 % 0 mm
18:30 -12.8 °C -14.4 °C 34476.3 hPa Calm     82 % 0 mm
18:45 -13 °C -14.3 °C 34462.7 hPa Calm     85 % 0 mm
19:00 -13.1 °C -14.4 °C 34462.7 hPa Calm     85 % 0 mm
19:15 -13.1 °C -14.3 °C 34462.7 hPa Calm     86 % 0 mm
19:30 -13.2 °C -14.3 °C 34462.7 hPa Calm     87 % 0 mm
19:45 -13.2 °C -14.3 °C 34462.7 hPa Calm     88 % 0 mm
20:00 -13.3 °C -14.3 °C 34476.3 hPa Calm     88 % 0 mm
20:15 -13.3 °C -14.3 °C 34476.3 hPa Calm     89 % 0 mm
20:30 -13.4 °C -14.3 °C 34476.3 hPa Calm     90 % 0 mm
20:45 -13.4 °C -14.3 °C 34476.3 hPa Calm     90 % 0 mm
21:00 -13.5 °C -14.3 °C 34476.3 hPa Calm     91 % 0 mm
21:15 -13.5 °C -14.3 °C 34476.3 hPa Calm     91 % 0 mm
21:30 -13.6 °C -14.2 °C 34476.3 hPa Calm     92 % 0 mm
21:45 -13.6 °C -14.3 °C 34476.3 hPa Calm     92 % 0 mm
22:00 -13.6 °C -14.3 °C 34462.7 hPa Calm     92 % 0 mm
22:15 -13.6 °C -14.3 °C 34462.7 hPa Calm     92 % 0 mm
22:30 -13.6 °C -14.2 °C 34462.7 hPa Calm     93 % 0 mm
22:45 -13.6 °C -14.2 °C 34462.7 hPa Calm     93 % 0 mm
23:00 -13.7 °C -14.2 °C 34462.7 hPa Calm     93 % 0 mm
23:15 -13.7 °C -14.2 °C 34462.7 hPa Calm     93 % 0 mm
23:30 -13.7 °C -14.2 °C 34462.7 hPa Calm     94 % 0 mm
23:45 -13.7 °C -14.2 °C 34462.7 hPa Calm     94 % 0 mm
Esan sääasema
Terveisin Weather Underground - 2.75 mb

Alkuperäinen skripti  Jim McMurry - jmcmurry@mwt.net Sovitettu myös templatelle  Wim van der Kuil - Leuven-Template.eu

Laitteet joita käytämme:

Sääasema
Davis VP2

Sääasemaohjelma
Cumulus

Sääaseman tietokone
Asus EeePC

Palveluntarjoaja
Suncomet

Davis VP2

Cumulus

Asus EeePC

Suncomet